Flight Track Log - Related Links

Times and Time Zones

All times are in EDT time to prevent confusion due to time zone crossing. See the TSU191 flight status page for this flight to view local times or setup timezone preferences in your user account.

Time Position Orientation Groundspeed Altitude Reporting Facility
EDT Latitude Longitude Course Direction KTS MPH feet Rate Location/Type
Tue 06:33:17 AM 42.6672 -83.4097 88° East 256 295 1,600  Level Cleveland Center
Tue 06:34:18 AM 42.6686 -83.3533 88° East 165 190 3,100 1,574 Climbing Cleveland Center
Tue 06:35:19 AM 42.6556 -83.2906 106° East 184 212 4,800 1,587 Climbing Cleveland Center
Tue 06:36:19 AM 42.6319 -83.2275 117° Southeast 191 220 6,300 1,140 Climbing Cleveland Center
Tue 06:37:20 AM 42.6067 -83.1475 113° Southeast 226 260 7,100 1,164 Climbing Cleveland Center
Tue 06:38:33 AM 42.5733 -83.0531 116° Southeast 239 275 8,900 1,218 Climbing Cleveland Center
Tue 06:39:33 AM 42.5456 -82.9814 118° Southeast 239 275 9,800 950 Climbing Cleveland Center
Tue 06:40:33 AM 42.5181 -82.8989 114° Southeast 234 269 10,800 650 Climbing Cleveland Center
Tue 06:41:33 AM 42.4886 -82.8189 117° Southeast 234 269 11,100 100 Climbing Cleveland Center
Tue 06:42:33 AM 42.4547 -82.7275 117° Southeast 247 284 11,000  Descending Cleveland Center
Tue 06:43:33 AM 42.4211 -82.6364 117° Southeast 257 296 11,100 50 Climbing Cleveland Center
Tue 06:44:33 AM 42.3953 -82.5653 116° Southeast 262 302 11,100 -100 Level Cleveland Center
Tue 06:45:33 AM 42.3678 -82.4578 109° East 267 307 10,900 50 Descending Cleveland Center
Tue 06:46:33 AM 42.3611 -82.3533 95° East 267 307 11,200 700 Climbing Cleveland Center
Tue 06:47:33 AM 42.3606 -82.2550 90° East 272 313 12,300 1,000 Climbing Cleveland Center
Tue 06:48:33 AM 42.3578 -82.1594 92° East 262 302 13,200 1,000 Climbing Cleveland Center
Tue 06:49:33 AM 42.3506 -82.0581 95° East 255 293 14,300 950 Climbing Cleveland Center
Tue 06:50:33 AM 42.3456 -81.9625 94° East 249 287 15,100 400 Climbing Cleveland Center
Tue 06:51:33 AM 42.3383 -81.8611 95° East 261 300 15,100  Level Cleveland Center
Tue 06:52:33 AM 42.3333 -81.7544 94° East 276 318 15,100 -50 Level Cleveland Center
Tue 06:53:33 AM 42.3303 -81.6447 92° East 281 323 15,000  Descending Cleveland Center
Tue 06:54:33 AM 42.3269 -81.5436 93° East 281 323 15,100 50 Climbing Cleveland Center
Tue 06:55:33 AM 42.3736 -81.4544 55° Northeast 267 307 15,100 -50 Level Cleveland Center
Tue 06:56:33 AM 42.4178 -81.3764 53° Northeast 280 322 15,000  Descending Cleveland Center
Tue 06:57:33 AM 42.4706 -81.2842 52° Northeast 289 333 15,100  Climbing Cleveland Center
Tue 06:58:33 AM 42.5189 -81.1972 53° Northeast 294 338 15,000 -50 Descending Cleveland Center
Tue 06:59:33 AM 42.5714 -81.1161 49° Northeast 294 338 15,000  Level Cleveland Center
Tue 07:00:33 AM 42.6239 -81.0289 51° Northeast 289 333 15,000  Level Cleveland Center
Tue 07:01:33 AM 42.6722 -80.9389 54° Northeast 289 333 15,000  Level Cleveland Center
Tue 07:02:33 AM 42.7206 -80.8403 56° Northeast 289 333 15,000 -632 Level Cleveland Center
Tue 07:04:05 AM 42.7833 -80.6833 61° Northeast 310 357 13,400 -829 Descending Toronto Center
Tue 07:05:05 AM 42.8500 -80.5833 48° Northeast 310 357 12,900 -500 Descending Toronto Center

Login

Don't have an account? Register now (free) for customized features, flight alerts, and more!